sensor_id;sensor_type;location;lat;lon;timestamp;P1;durP1;ratioP1;P2;durP2;ratioP2
12005;SDS011;6062;47.294;12.182;2023-04-03T06:12:25;52.87;;;2.67;;
12005;SDS011;6062;47.294;12.182;2023-04-03T06:14:51;180.53;;;7.00;;
12005;SDS011;6062;47.294;12.182;2023-04-03T06:17:17;348.53;;;15.60;;
12005;SDS011;6062;47.294;12.182;2023-04-03T06:19:43;263.93;;;12.47;;
12005;SDS011;6062;47.294;12.182;2023-04-03T06:22:09;333.63;;;14.77;;
12005;SDS011;6062;47.294;12.182;2023-04-03T06:24:36;246.50;;;9.30;;
12005;SDS011;6062;47.294;12.182;2023-04-03T06:27:03;434.07;;;21.40;;
12005;SDS011;6062;47.294;12.182;2023-04-03T06:29:29;281.47;;;12.30;;
12005;SDS011;6062;47.294;12.182;2023-04-03T06:31:55;332.00;;;23.50;;
12005;SDS011;6062;47.294;12.182;2023-04-03T06:34:21;170.47;;;12.60;;
12005;SDS011;6062;47.294;12.182;2023-04-03T06:36:47;166.50;;;22.33;;
12005;SDS011;6062;47.294;12.182;2023-04-03T06:39:18;30.90;;;17.47;;
12005;SDS011;6062;47.294;12.182;2023-04-03T06:41:47;42.50;;;21.70;;
12005;SDS011;6062;47.294;12.182;2023-04-03T06:44:13;332.33;;;33.37;;
12005;SDS011;6062;47.294;12.182;2023-04-03T06:46:41;97.07;;;15.33;;
12005;SDS011;6062;47.294;12.182;2023-04-03T06:49:07;79.80;;;10.53;;
12005;SDS011;6062;47.294;12.182;2023-04-03T06:51:35;16.73;;;5.83;;
12005;SDS011;6062;47.294;12.182;2023-04-03T06:54:01;98.67;;;13.00;;
12005;SDS011;6062;47.294;12.182;2023-04-03T06:56:29;29.83;;;7.17;;
12005;SDS011;6062;47.294;12.182;2023-04-03T06:58:56;232.60;;;13.27;;
12005;SDS011;6062;47.294;12.182;2023-04-03T07:01:23;248.90;;;15.10;;
12005;SDS011;6062;47.294;12.182;2023-04-03T07:03:52;242.93;;;24.90;;
12005;SDS011;6062;47.294;12.182;2023-04-03T07:06:19;273.43;;;15.23;;
12005;SDS011;6062;47.294;12.182;2023-04-03T07:08:45;322.30;;;14.17;;
12005;SDS011;6062;47.294;12.182;2023-04-03T07:11:12;92.83;;;5.67;;
12005;SDS011;6062;47.294;12.182;2023-04-03T07:13:38;31.13;;;2.60;;
12005;SDS011;6062;47.294;12.182;2023-04-03T07:16:05;4.20;;;1.80;;
12005;SDS011;6062;47.294;12.182;2023-04-03T07:18:32;11.43;;;1.73;;
12005;SDS011;6062;47.294;12.182;2023-04-03T07:20:58;3.10;;;2.80;;
12005;SDS011;6062;47.294;12.182;2023-04-03T07:23:25;5.67;;;3.50;;
12005;SDS011;6062;47.294;12.182;2023-04-03T07:25:51;5.40;;;4.90;;
12005;SDS011;6062;47.294;12.182;2023-04-03T07:28:18;5.60;;;5.00;;
12005;SDS011;6062;47.294;12.182;2023-04-03T07:30:51;12.87;;;4.60;;
12005;SDS011;6062;47.294;12.182;2023-04-03T07:33:33;24.47;;;4.30;;
12005;SDS011;6062;47.294;12.182;2023-04-03T07:35:59;17.07;;;2.23;;
12005;SDS011;6062;47.294;12.182;2023-04-03T07:38:26;1.77;;;1.50;;
12005;SDS011;6062;47.294;12.182;2023-04-03T07:40:52;1.17;;;1.07;;
12005;SDS011;6062;47.294;12.182;2023-04-03T07:43:18;1.47;;;1.03;;
12005;SDS011;6062;47.294;12.182;2023-04-03T07:45:46;1.57;;;1.40;;
12005;SDS011;6062;47.294;12.182;2023-04-03T07:48:16;1.20;;;1.10;;
12005;SDS011;6062;47.294;12.182;2023-04-03T07:50:44;16.83;;;2.87;;
12005;SDS011;6062;47.294;12.182;2023-04-03T07:53:10;3.97;;;2.50;;
12005;SDS011;6062;47.294;12.182;2023-04-03T07:55:36;2.37;;;2.00;;
12005;SDS011;6062;47.294;12.182;2023-04-03T07:58:08;1.40;;;1.30;;
12005;SDS011;6062;47.294;12.182;2023-04-03T08:00:36;6.60;;;1.40;;
12005;SDS011;6062;47.294;12.182;2023-04-03T08:03:03;1.30;;;1.20;;
12005;SDS011;6062;47.294;12.182;2023-04-03T08:05:30;1.37;;;1.10;;
12005;SDS011;6062;47.294;12.182;2023-04-03T08:07:56;0.80;;;0.80;;
12005;SDS011;6062;47.294;12.182;2023-04-03T08:10:22;0.70;;;0.70;;
12005;SDS011;6062;47.294;12.182;2023-04-03T08:12:48;0.70;;;0.70;;
12005;SDS011;6062;47.294;12.182;2023-04-03T08:15:14;0.77;;;0.70;;
12005;SDS011;6062;47.294;12.182;2023-04-03T08:17:39;0.97;;;0.90;;
12005;SDS011;6062;47.294;12.182;2023-04-03T08:20:05;0.90;;;0.90;;
12005;SDS011;6062;47.294;12.182;2023-04-03T08:22:33;1.07;;;0.83;;
12005;SDS011;6062;47.294;12.182;2023-04-03T08:24:59;1.10;;;1.00;;
12005;SDS011;6062;47.294;12.182;2023-04-03T08:27:26;1.40;;;1.20;;
12005;SDS011;6062;47.294;12.182;2023-04-03T08:29:52;1.30;;;1.20;;
12005;SDS011;6062;47.294;12.182;2023-04-03T08:32:18;1.40;;;1.30;;
12005;SDS011;6062;47.294;12.182;2023-04-03T08:34:44;1.20;;;1.10;;
12005;SDS011;6062;47.294;12.182;2023-04-03T08:37:11;10.63;;;1.37;;
12005;SDS011;6062;47.294;12.182;2023-04-03T08:39:36;20.83;;;1.90;;
12005;SDS011;6062;47.294;12.182;2023-04-03T08:42:03;4.70;;;1.63;;
12005;SDS011;6062;47.294;12.182;2023-04-03T08:50:25;3.30;;;1.40;;
12005;SDS011;6062;47.294;12.182;2023-04-03T08:52:58;3.20;;;1.50;;
12005;SDS011;6062;47.294;12.182;2023-04-03T08:58:30;1.40;;;1.27;;
12005;SDS011;6062;47.294;12.182;2023-04-03T09:01:07;1.10;;;1.10;;
12005;SDS011;6062;47.294;12.182;2023-04-03T09:04:14;1.83;;;1.40;;
12005;SDS011;6062;47.294;12.182;2023-04-03T09:06:45;1.30;;;1.20;;
12005;SDS011;6062;47.294;12.182;2023-04-03T09:09:35;1.20;;;1.10;;
12005;SDS011;6062;47.294;12.182;2023-04-03T09:15:09;1.73;;;1.20;;
12005;SDS011;6062;47.294;12.182;2023-04-03T09:17:57;1.87;;;1.00;;
12005;SDS011;6062;47.294;12.182;2023-04-03T09:20:44;1.10;;;1.00;;
12005;SDS011;6062;47.294;12.182;2023-04-03T09:23:41;1.33;;;1.00;;
12005;SDS011;6062;47.294;12.182;2023-04-03T09:26:19;1.57;;;1.10;;
12005;SDS011;6062;47.294;12.182;2023-04-03T09:28:54;1.30;;;1.20;;
12005;SDS011;6062;47.294;12.182;2023-04-03T09:31:29;1.40;;;1.30;;
12005;SDS011;6062;47.294;12.182;2023-04-03T09:34:05;1.60;;;1.40;;
12005;SDS011;6062;47.294;12.182;2023-04-03T09:36:54;1.73;;;1.00;;
12005;SDS011;6062;47.294;12.182;2023-04-03T09:39:27;1.30;;;1.20;;
12005;SDS011;6062;47.294;12.182;2023-04-03T09:41:58;1.70;;;1.40;;
12005;SDS011;6062;47.294;12.182;2023-04-03T09:46:58;1.77;;;1.50;;
12005;SDS011;6062;47.294;12.182;2023-04-03T09:49:25;2.80;;;1.50;;
12005;SDS011;6062;47.294;12.182;2023-04-03T09:51:51;1.55;;;1.35;;
12005;SDS011;6062;47.294;12.182;2023-04-03T09:54:24;1.60;;;1.40;;
12005;SDS011;6062;47.294;12.182;2023-04-03T09:56:51;1.70;;;1.52;;
12005;SDS011;6062;47.294;12.182;2023-04-03T09:59:20;1.40;;;1.30;;
12005;SDS011;6062;47.294;12.182;2023-04-03T10:01:56;2.23;;;1.50;;
12005;SDS011;6062;47.294;12.182;2023-04-03T10:10:38;2.87;;;1.60;;
12005;SDS011;6062;47.294;12.182;2023-04-03T10:13:11;1.70;;;1.60;;
12005;SDS011;6062;47.294;12.182;2023-04-03T10:27:18;1.58;;;1.25;;
12005;SDS011;6062;47.294;12.182;2023-04-03T10:36:10;3.63;;;1.73;;
12005;SDS011;6062;47.294;12.182;2023-04-03T10:50:52;10.47;;;2.60;;
12005;SDS011;6062;47.294;12.182;2023-04-03T10:54:24;2.70;;;2.50;;
12005;SDS011;6062;47.294;12.182;2023-04-03T10:57:01;3.10;;;2.80;;
12005;SDS011;6062;47.294;12.182;2023-04-03T10:59:37;7.53;;;6.40;;
12005;SDS011;6062;47.294;12.182;2023-04-03T11:02:24;3.90;;;3.50;;
12005;SDS011;6062;47.294;12.182;2023-04-03T11:05:13;2.27;;;2.07;;
12005;SDS011;6062;47.294;12.182;2023-04-03T11:07:51;1.30;;;1.20;;
12005;SDS011;6062;47.294;12.182;2023-04-03T11:13:11;1.40;;;1.30;;
12005;SDS011;6062;47.294;12.182;2023-04-03T11:15:48;2.22;;;1.38;;
12005;SDS011;6062;47.294;12.182;2023-04-03T11:18:15;3.23;;;1.60;;
12005;SDS011;6062;47.294;12.182;2023-04-03T11:21:01;1.20;;;1.10;;
12005;SDS011;6062;47.294;12.182;2023-04-03T11:23:35;3.90;;;3.60;;
12005;SDS011;6062;47.294;12.182;2023-04-03T11:26:09;2.38;;;2.17;;
12005;SDS011;6062;47.294;12.182;2023-04-03T11:28:41;1.15;;;1.05;;
12005;SDS011;6062;47.294;12.182;2023-04-03T11:37:27;0.70;;;0.70;;
12005;SDS011;6062;47.294;12.182;2023-04-03T11:40:02;2.15;;;1.00;;
12005;SDS011;6062;47.294;12.182;2023-04-03T11:42:42;1.15;;;0.80;;
12005;SDS011;6062;47.294;12.182;2023-04-03T11:50:45;0.80;;;0.80;;
12005;SDS011;6062;47.294;12.182;2023-04-03T11:58:15;1.10;;;0.85;;
12005;SDS011;6062;47.294;12.182;2023-04-03T12:11:44;1.40;;;1.30;;
12005;SDS011;6062;47.294;12.182;2023-04-03T12:43:37;1.53;;;1.30;;
12005;SDS011;6062;47.294;12.182;2023-04-03T12:46:24;1.20;;;1.10;;
12005;SDS011;6062;47.294;12.182;2023-04-03T12:49:02;2.73;;;1.50;;
12005;SDS011;6062;47.294;12.182;2023-04-03T12:52:24;1.50;;;1.40;;
12005;SDS011;6062;47.294;12.182;2023-04-03T12:55:15;1.50;;;1.40;;
12005;SDS011;6062;47.294;12.182;2023-04-03T12:57:45;1.63;;;1.50;;
12005;SDS011;6062;47.294;12.182;2023-04-03T13:00:21;1.40;;;1.30;;
12005;SDS011;6062;47.294;12.182;2023-04-03T13:02:58;1.53;;;1.30;;
12005;SDS011;6062;47.294;12.182;2023-04-03T13:05:26;1.70;;;1.50;;
12005;SDS011;6062;47.294;12.182;2023-04-03T13:07:58;1.40;;;1.30;;
12005;SDS011;6062;47.294;12.182;2023-04-03T13:10:29;3.07;;;1.60;;
12005;SDS011;6062;47.294;12.182;2023-04-03T13:12:55;2.47;;;1.70;;
12005;SDS011;6062;47.294;12.182;2023-04-03T13:15:40;13.13;;;2.07;;
12005;SDS011;6062;47.294;12.182;2023-04-03T13:20:51;1.97;;;1.77;;
12005;SDS011;6062;47.294;12.182;2023-04-03T13:23:18;1.90;;;1.50;;
12005;SDS011;6062;47.294;12.182;2023-04-03T13:25:46;2.50;;;1.70;;
12005;SDS011;6062;47.294;12.182;2023-04-03T13:28:15;1.77;;;1.67;;
12005;SDS011;6062;47.294;12.182;2023-04-03T13:30:55;4.27;;;2.07;;
12005;SDS011;6062;47.294;12.182;2023-04-03T13:33:28;2.40;;;2.00;;
12005;SDS011;6062;47.294;12.182;2023-04-03T13:36:06;2.10;;;1.90;;
12005;SDS011;6062;47.294;12.182;2023-04-03T13:38:43;1.83;;;1.70;;
12005;SDS011;6062;47.294;12.182;2023-04-03T13:41:26;8.27;;;1.73;;
12005;SDS011;6062;47.294;12.182;2023-04-03T13:44:25;1.43;;;1.33;;
12005;SDS011;6062;47.294;12.182;2023-04-03T13:50:03;4.03;;;1.80;;
12005;SDS011;6062;47.294;12.182;2023-04-03T13:52:52;1.70;;;1.60;;
12005;SDS011;6062;47.294;12.182;2023-04-03T13:55:26;1.60;;;1.43;;
12005;SDS011;6062;47.294;12.182;2023-04-03T13:57:59;2.30;;;1.80;;
12005;SDS011;6062;47.294;12.182;2023-04-03T14:00:47;1.93;;;1.73;;
12005;SDS011;6062;47.294;12.182;2023-04-03T14:06:25;2.00;;;1.77;;
12005;SDS011;6062;47.294;12.182;2023-04-03T14:08:52;2.63;;;1.60;;
12005;SDS011;6062;47.294;12.182;2023-04-03T14:11:19;1.70;;;1.60;;
12005;SDS011;6062;47.294;12.182;2023-04-03T14:13:52;1.60;;;1.50;;
12005;SDS011;6062;47.294;12.182;2023-04-03T14:16:19;1.53;;;1.40;;
12005;SDS011;6062;47.294;12.182;2023-04-03T14:18:50;1.83;;;1.57;;
12005;SDS011;6062;47.294;12.182;2023-04-03T14:21:17;1.80;;;1.53;;
12005;SDS011;6062;47.294;12.182;2023-04-03T14:23:46;1.30;;;1.20;;
12005;SDS011;6062;47.294;12.182;2023-04-03T14:26:17;1.53;;;1.43;;
12005;SDS011;6062;47.294;12.182;2023-04-03T14:28:48;1.37;;;1.27;;
12005;SDS011;6062;47.294;12.182;2023-04-03T14:31:18;1.83;;;1.50;;
12005;SDS011;6062;47.294;12.182;2023-04-03T14:33:46;1.73;;;1.63;;
12005;SDS011;6062;47.294;12.182;2023-04-03T14:36:17;2.03;;;1.70;;
12005;SDS011;6062;47.294;12.182;2023-04-03T14:38:47;1.63;;;1.50;;
12005;SDS011;6062;47.294;12.182;2023-04-03T14:41:16;1.77;;;1.40;;
12005;SDS011;6062;47.294;12.182;2023-04-03T14:43:45;1.97;;;1.77;;
12005;SDS011;6062;47.294;12.182;2023-04-03T14:46:18;2.17;;;1.80;;
12005;SDS011;6062;47.294;12.182;2023-04-03T14:48:57;2.10;;;1.80;;
12005;SDS011;6062;47.294;12.182;2023-04-03T14:51:24;2.03;;;1.80;;
12005;SDS011;6062;47.294;12.182;2023-04-03T14:53:50;2.10;;;1.90;;
12005;SDS011;6062;47.294;12.182;2023-04-03T14:58:47;1.70;;;1.60;;
12005;SDS011;6062;47.294;12.182;2023-04-03T15:01:17;1.60;;;1.30;;
12005;SDS011;6062;47.294;12.182;2023-04-03T15:03:43;1.80;;;1.60;;
12005;SDS011;6062;47.294;12.182;2023-04-03T15:06:12;1.60;;;1.50;;
12005;SDS011;6062;47.294;12.182;2023-04-03T15:08:40;2.27;;;1.97;;
12005;SDS011;6062;47.294;12.182;2023-04-03T15:11:09;5.47;;;2.00;;
12005;SDS011;6062;47.294;12.182;2023-04-03T15:13:36;2.27;;;1.60;;
12005;SDS011;6062;47.294;12.182;2023-04-03T15:16:03;8.07;;;2.17;;
12005;SDS011;6062;47.294;12.182;2023-04-03T15:18:37;2.07;;;1.60;;
12005;SDS011;6062;47.294;12.182;2023-04-03T15:21:04;2.10;;;1.73;;
12005;SDS011;6062;47.294;12.182;2023-04-03T15:23:30;2.20;;;1.87;;
12005;SDS011;6062;47.294;12.182;2023-04-03T15:25:56;2.00;;;1.80;;
12005;SDS011;6062;47.294;12.182;2023-04-03T15:30:54;2.37;;;1.80;;
12005;SDS011;6062;47.294;12.182;2023-04-03T15:33:20;1.90;;;1.73;;
12005;SDS011;6062;47.294;12.182;2023-04-03T15:35:46;2.43;;;1.60;;
12005;SDS011;6062;47.294;12.182;2023-04-03T15:38:12;2.00;;;1.80;;
12005;SDS011;6062;47.294;12.182;2023-04-03T15:40:38;4.37;;;1.83;;
12005;SDS011;6062;47.294;12.182;2023-04-03T15:43:04;30.60;;;2.77;;
12005;SDS011;6062;47.294;12.182;2023-04-03T15:45:31;6.13;;;1.93;;
12005;SDS011;6062;47.294;12.182;2023-04-03T15:48:01;11.47;;;2.40;;
12005;SDS011;6062;47.294;12.182;2023-04-03T15:50:29;11.57;;;2.43;;
12005;SDS011;6062;47.294;12.182;2023-04-03T15:52:57;23.63;;;2.17;;
12005;SDS011;6062;47.294;12.182;2023-04-03T15:55:25;2.23;;;1.80;;
12005;SDS011;6062;47.294;12.182;2023-04-03T15:57:56;1.73;;;1.60;;
12005;SDS011;6062;47.294;12.182;2023-04-03T16:00:22;2.87;;;2.00;;
12005;SDS011;6062;47.294;12.182;2023-04-03T16:02:50;5.83;;;2.20;;
12005;SDS011;6062;47.294;12.182;2023-04-03T16:05:22;1.67;;;1.57;;
12005;SDS011;6062;47.294;12.182;2023-04-03T16:07:48;1.70;;;1.60;;
12005;SDS011;6062;47.294;12.182;2023-04-03T16:10:14;2.40;;;1.70;;
12005;SDS011;6062;47.294;12.182;2023-04-03T16:12:42;2.73;;;1.93;;
12005;SDS011;6062;47.294;12.182;2023-04-03T16:15:09;8.90;;;2.00;;
12005;SDS011;6062;47.294;12.182;2023-04-03T16:17:37;16.30;;;2.60;;
12005;SDS011;6062;47.294;12.182;2023-04-03T16:20:06;12.80;;;2.73;;
12005;SDS011;6062;47.294;12.182;2023-04-03T16:22:34;25.27;;;2.83;;
12005;SDS011;6062;47.294;12.182;2023-04-03T16:25:01;8.03;;;2.00;;
12005;SDS011;6062;47.294;12.182;2023-04-03T16:27:27;2.07;;;1.83;;
12005;SDS011;6062;47.294;12.182;2023-04-03T16:29:55;1.60;;;1.50;;
12005;SDS011;6062;47.294;12.182;2023-04-03T16:32:22;1.70;;;1.60;;
12005;SDS011;6062;47.294;12.182;2023-04-03T16:34:51;1.67;;;1.57;;
12005;SDS011;6062;47.294;12.182;2023-04-03T16:37:17;2.23;;;1.90;;
12005;SDS011;6062;47.294;12.182;2023-04-03T16:39:43;9.00;;;2.30;;
12005;SDS011;6062;47.294;12.182;2023-04-03T16:42:08;2.00;;;1.80;;
12005;SDS011;6062;47.294;12.182;2023-04-03T16:44:34;35.13;;;2.87;;
12005;SDS011;6062;47.294;12.182;2023-04-03T16:47:01;1.70;;;1.60;;
12005;SDS011;6062;47.294;12.182;2023-04-03T16:49:27;63.10;;;5.00;;
12005;SDS011;6062;47.294;12.182;2023-04-03T16:51:58;17.83;;;2.70;;
12005;SDS011;6062;47.294;12.182;2023-04-03T16:54:25;22.07;;;2.80;;
12005;SDS011;6062;47.294;12.182;2023-04-03T16:56:51;6.57;;;2.80;;
12005;SDS011;6062;47.294;12.182;2023-04-03T16:59:17;2.20;;;2.00;;
12005;SDS011;6062;47.294;12.182;2023-04-03T17:01:43;4.73;;;2.00;;
12005;SDS011;6062;47.294;12.182;2023-04-03T17:04:09;3.90;;;2.00;;
12005;SDS011;6062;47.294;12.182;2023-04-03T17:06:34;3.37;;;2.20;;
12005;SDS011;6062;47.294;12.182;2023-04-03T17:09:00;2.23;;;1.90;;
12005;SDS011;6062;47.294;12.182;2023-04-03T17:11:26;4.37;;;1.93;;
12005;SDS011;6062;47.294;12.182;2023-04-03T17:13:53;2.40;;;1.90;;
12005;SDS011;6062;47.294;12.182;2023-04-03T17:16:19;2.40;;;1.80;;
12005;SDS011;6062;47.294;12.182;2023-04-03T17:18:45;2.50;;;1.90;;
12005;SDS011;6062;47.294;12.182;2023-04-03T17:21:12;2.30;;;1.80;;
12005;SDS011;6062;47.294;12.182;2023-04-03T17:23:40;2.43;;;2.00;;
12005;SDS011;6062;47.294;12.182;2023-04-03T17:26:08;2.60;;;1.80;;
12005;SDS011;6062;47.294;12.182;2023-04-03T17:28:34;2.20;;;2.00;;
12005;SDS011;6062;47.294;12.182;2023-04-03T17:31:01;2.83;;;2.20;;
12005;SDS011;6062;47.294;12.182;2023-04-03T17:33:28;2.80;;;2.50;;
12005;SDS011;6062;47.294;12.182;2023-04-03T17:35:58;2.10;;;1.80;;
12005;SDS011;6062;47.294;12.182;2023-04-03T17:38:28;2.37;;;1.83;;
12005;SDS011;6062;47.294;12.182;2023-04-03T17:40:55;3.13;;;1.90;;
12005;SDS011;6062;47.294;12.182;2023-04-03T17:43:23;4.07;;;1.97;;
12005;SDS011;6062;47.294;12.182;2023-04-03T17:45:49;2.00;;;1.80;;
12005;SDS011;6062;47.294;12.182;2023-04-03T17:48:15;2.30;;;1.80;;
12005;SDS011;6062;47.294;12.182;2023-04-03T17:50:41;28.53;;;3.33;;
12005;SDS011;6062;47.294;12.182;2023-04-03T17:53:17;16.27;;;3.20;;
12005;SDS011;6062;47.294;12.182;2023-04-03T17:55:43;3.17;;;2.27;;
12005;SDS011;6062;47.294;12.182;2023-04-03T17:58:09;37.87;;;3.80;;
12005;SDS011;6062;47.294;12.182;2023-04-03T18:00:35;81.03;;;5.70;;
12005;SDS011;6062;47.294;12.182;2023-04-03T18:03:01;11.33;;;2.90;;
12005;SDS011;6062;47.294;12.182;2023-04-03T18:05:28;2.90;;;2.60;;
12005;SDS011;6062;47.294;12.182;2023-04-03T18:07:54;2.63;;;2.33;;
12005;SDS011;6062;47.294;12.182;2023-04-03T18:10:22;2.87;;;2.00;;
12005;SDS011;6062;47.294;12.182;2023-04-03T18:12:49;2.60;;;1.90;;
12005;SDS011;6062;47.294;12.182;2023-04-03T18:15:17;48.13;;;4.37;;
12005;SDS011;6062;47.294;12.182;2023-04-03T18:17:43;27.33;;;3.50;;
12005;SDS011;6062;47.294;12.182;2023-04-03T18:20:10;9.77;;;3.07;;
12005;SDS011;6062;47.294;12.182;2023-04-03T18:22:39;4.27;;;2.50;;
12005;SDS011;6062;47.294;12.182;2023-04-03T18:25:05;2.87;;;2.40;;
12005;SDS011;6062;47.294;12.182;2023-04-03T18:27:32;3.20;;;2.30;;
12005;SDS011;6062;47.294;12.182;2023-04-03T18:29:59;2.67;;;2.37;;
12005;SDS011;6062;47.294;12.182;2023-04-03T18:32:32;3.20;;;2.27;;
12005;SDS011;6062;47.294;12.182;2023-04-03T18:34:58;2.83;;;2.23;;
12005;SDS011;6062;47.294;12.182;2023-04-03T18:37:25;2.63;;;2.00;;
12005;SDS011;6062;47.294;12.182;2023-04-03T18:39:52;2.67;;;2.23;;
12005;SDS011;6062;47.294;12.182;2023-04-03T18:42:19;10.87;;;2.70;;
12005;SDS011;6062;47.294;12.182;2023-04-03T18:44:50;4.10;;;2.33;;
12005;SDS011;6062;47.294;12.182;2023-04-03T18:47:22;11.37;;;2.73;;
12005;SDS011;6062;47.294;12.182;2023-04-03T18:49:48;3.67;;;2.50;;
12005;SDS011;6062;47.294;12.182;2023-04-03T18:52:14;2.87;;;2.27;;
12005;SDS011;6062;47.294;12.182;2023-04-03T18:54:40;7.97;;;2.63;;
12005;SDS011;6062;47.294;12.182;2023-04-03T18:57:07;22.30;;;3.27;;
12005;SDS011;6062;47.294;12.182;2023-04-03T18:59:33;27.77;;;3.50;;
12005;SDS011;6062;47.294;12.182;2023-04-03T19:01:58;53.43;;;4.63;;
12005;SDS011;6062;47.294;12.182;2023-04-03T19:04:25;23.73;;;3.27;;
12005;SDS011;6062;47.294;12.182;2023-04-03T19:06:53;6.67;;;2.47;;
12005;SDS011;6062;47.294;12.182;2023-04-03T19:09:19;11.13;;;2.70;;
12005;SDS011;6062;47.294;12.182;2023-04-03T19:11:45;19.23;;;3.10;;
12005;SDS011;6062;47.294;12.182;2023-04-03T19:14:10;2.90;;;2.30;;
12005;SDS011;6062;47.294;12.182;2023-04-03T19:16:36;2.93;;;2.20;;
12005;SDS011;6062;47.294;12.182;2023-04-03T19:19:02;5.37;;;2.87;;
12005;SDS011;6062;47.294;12.182;2023-04-03T19:21:28;16.53;;;3.10;;
12005;SDS011;6062;47.294;12.182;2023-04-03T19:23:54;1.97;;;1.77;;
12005;SDS011;6062;47.294;12.182;2023-04-03T19:26:23;3.00;;;2.20;;
12005;SDS011;6062;47.294;12.182;2023-04-03T19:28:52;2.23;;;1.80;;
12005;SDS011;6062;47.294;12.182;2023-04-03T19:31:19;2.47;;;2.20;;
12005;SDS011;6062;47.294;12.182;2023-04-03T19:33:46;3.37;;;2.40;;
12005;SDS011;6062;47.294;12.182;2023-04-03T19:36:12;3.50;;;2.20;;
12005;SDS011;6062;47.294;12.182;2023-04-03T19:38:40;3.03;;;2.33;;
12005;SDS011;6062;47.294;12.182;2023-04-03T19:41:07;2.47;;;2.17;;
12005;SDS011;6062;47.294;12.182;2023-04-03T19:43:38;2.80;;;2.10;;
12005;SDS011;6062;47.294;12.182;2023-04-03T19:46:05;2.90;;;2.43;;
12005;SDS011;6062;47.294;12.182;2023-04-03T19:48:32;2.50;;;2.30;;
12005;SDS011;6062;47.294;12.182;2023-04-03T19:50:58;2.63;;;2.13;;
12005;SDS011;6062;47.294;12.182;2023-04-03T19:53:23;2.93;;;2.27;;
12005;SDS011;6062;47.294;12.182;2023-04-03T19:55:53;3.67;;;2.47;;
12005;SDS011;6062;47.294;12.182;2023-04-03T19:58:21;3.17;;;2.07;;
12005;SDS011;6062;47.294;12.182;2023-04-03T20:00:47;3.17;;;2.40;;
12005;SDS011;6062;47.294;12.182;2023-04-03T20:03:14;3.67;;;2.40;;
12005;SDS011;6062;47.294;12.182;2023-04-03T20:05:40;2.80;;;2.30;;
12005;SDS011;6062;47.294;12.182;2023-04-03T20:08:05;2.57;;;2.37;;
12005;SDS011;6062;47.294;12.182;2023-04-03T20:10:31;2.80;;;2.30;;
12005;SDS011;6062;47.294;12.182;2023-04-03T20:12:57;3.03;;;2.33;;
12005;SDS011;6062;47.294;12.182;2023-04-03T20:15:23;4.30;;;2.30;;
12005;SDS011;6062;47.294;12.182;2023-04-03T20:17:50;2.30;;;1.90;;
12005;SDS011;6062;47.294;12.182;2023-04-03T20:20:16;3.17;;;2.27;;
12005;SDS011;6062;47.294;12.182;2023-04-03T20:22:42;3.83;;;2.40;;
12005;SDS011;6062;47.294;12.182;2023-04-03T20:25:09;4.90;;;2.13;;
12005;SDS011;6062;47.294;12.182;2023-04-03T20:27:36;2.97;;;2.17;;
12005;SDS011;6062;47.294;12.182;2023-04-03T20:30:04;33.27;;;3.60;;
12005;SDS011;6062;47.294;12.182;2023-04-03T20:32:35;102.43;;;6.27;;
12005;SDS011;6062;47.294;12.182;2023-04-03T20:35:01;3.30;;;2.40;;
12005;SDS011;6062;47.294;12.182;2023-04-03T20:37:26;2.47;;;2.17;;
12005;SDS011;6062;47.294;12.182;2023-04-03T20:39:53;8.23;;;2.43;;
12005;SDS011;6062;47.294;12.182;2023-04-03T20:42:18;173.50;;;9.03;;
12005;SDS011;6062;47.294;12.182;2023-04-03T20:44:44;9.67;;;2.60;;
12005;SDS011;6062;47.294;12.182;2023-04-03T20:47:10;232.27;;;10.43;;
12005;SDS011;6062;47.294;12.182;2023-04-03T20:49:38;206.23;;;9.67;;
12005;SDS011;6062;47.294;12.182;2023-04-03T20:52:04;213.90;;;10.60;;
12005;SDS011;6062;47.294;12.182;2023-04-03T20:54:30;38.97;;;3.73;;
12005;SDS011;6062;47.294;12.182;2023-04-03T20:56:55;22.23;;;3.17;;
12005;SDS011;6062;47.294;12.182;2023-04-03T20:59:21;10.77;;;3.03;;
